sensor_id;sensor_type;location;lat;lon;timestamp;P1;durP1;ratioP1;P2;durP2;ratioP2
3941;SDS011;1985;48.592;8.850;2022-08-24T00:01:14;9.90;;;1.90;;
3941;SDS011;1985;48.592;8.850;2022-08-24T00:03:41;8.85;;;1.70;;
3941;SDS011;1985;48.592;8.850;2022-08-24T00:06:09;9.20;;;2.10;;
3941;SDS011;1985;48.592;8.850;2022-08-24T00:08:37;9.70;;;1.90;;
3941;SDS011;1985;48.592;8.850;2022-08-24T00:11:04;10.13;;;1.88;;
3941;SDS011;1985;48.592;8.850;2022-08-24T00:13:31;9.00;;;1.80;;
3941;SDS011;1985;48.592;8.850;2022-08-24T00:15:57;9.20;;;1.90;;
3941;SDS011;1985;48.592;8.850;2022-08-24T00:18:23;9.63;;;2.00;;
3941;SDS011;1985;48.592;8.850;2022-08-24T00:20:48;9.65;;;1.80;;
3941;SDS011;1985;48.592;8.850;2022-08-24T00:23:14;9.32;;;2.05;;
3941;SDS011;1985;48.592;8.850;2022-08-24T00:25:41;11.00;;;2.20;;
3941;SDS011;1985;48.592;8.850;2022-08-24T00:28:07;9.57;;;2.42;;
3941;SDS011;1985;48.592;8.850;2022-08-24T00:30:33;10.30;;;2.10;;
3941;SDS011;1985;48.592;8.850;2022-08-24T00:32:59;10.07;;;2.00;;
3941;SDS011;1985;48.592;8.850;2022-08-24T00:35:25;8.95;;;1.70;;
3941;SDS011;1985;48.592;8.850;2022-08-24T00:37:51;8.70;;;1.90;;
3941;SDS011;1985;48.592;8.850;2022-08-24T00:40:20;9.70;;;2.30;;
3941;SDS011;1985;48.592;8.850;2022-08-24T00:42:46;8.80;;;1.90;;
3941;SDS011;1985;48.592;8.850;2022-08-24T00:45:12;8.90;;;1.90;;
3941;SDS011;1985;48.592;8.850;2022-08-24T00:47:43;9.25;;;2.00;;
3941;SDS011;1985;48.592;8.850;2022-08-24T00:50:18;8.82;;;2.03;;
3941;SDS011;1985;48.592;8.850;2022-08-24T00:52:54;9.30;;;2.00;;
3941;SDS011;1985;48.592;8.850;2022-08-24T00:55:25;9.55;;;2.30;;
3941;SDS011;1985;48.592;8.850;2022-08-24T00:57:55;13.43;;;2.40;;
3941;SDS011;1985;48.592;8.850;2022-08-24T01:00:26;9.67;;;2.20;;
3941;SDS011;1985;48.592;8.850;2022-08-24T01:02:56;10.68;;;2.30;;
3941;SDS011;1985;48.592;8.850;2022-08-24T01:05:28;9.60;;;2.20;;
3941;SDS011;1985;48.592;8.850;2022-08-24T01:07:56;8.93;;;1.90;;
3941;SDS011;1985;48.592;8.850;2022-08-24T01:10:23;9.30;;;2.05;;
3941;SDS011;1985;48.592;8.850;2022-08-24T01:12:53;8.82;;;1.85;;
3941;SDS011;1985;48.592;8.850;2022-08-24T01:15:25;11.07;;;2.40;;
3941;SDS011;1985;48.592;8.850;2022-08-24T01:17:51;8.80;;;1.77;;
3941;SDS011;1985;48.592;8.850;2022-08-24T01:20:35;10.65;;;2.20;;
3941;SDS011;1985;48.592;8.850;2022-08-24T01:23:05;9.70;;;2.30;;
3941;SDS011;1985;48.592;8.850;2022-08-24T01:25:46;11.00;;;2.10;;
3941;SDS011;1985;48.592;8.850;2022-08-24T01:28:14;9.23;;;2.07;;
3941;SDS011;1985;48.592;8.850;2022-08-24T01:30:44;9.10;;;1.90;;
3941;SDS011;1985;48.592;8.850;2022-08-24T01:33:20;9.88;;;2.40;;
3941;SDS011;1985;48.592;8.850;2022-08-24T01:35:48;9.00;;;2.03;;
3941;SDS011;1985;48.592;8.850;2022-08-24T01:38:14;10.70;;;2.23;;
3941;SDS011;1985;48.592;8.850;2022-08-24T01:40:47;9.60;;;2.13;;
3941;SDS011;1985;48.592;8.850;2022-08-24T01:43:16;8.88;;;1.90;;
3941;SDS011;1985;48.592;8.850;2022-08-24T01:45:42;10.13;;;2.23;;
3941;SDS011;1985;48.592;8.850;2022-08-24T01:48:08;11.23;;;2.00;;
3941;SDS011;1985;48.592;8.850;2022-08-24T01:50:35;9.65;;;2.20;;
3941;SDS011;1985;48.592;8.850;2022-08-24T01:53:02;9.55;;;2.08;;
3941;SDS011;1985;48.592;8.850;2022-08-24T01:55:30;10.02;;;2.13;;
3941;SDS011;1985;48.592;8.850;2022-08-24T01:57:56;10.10;;;2.60;;
3941;SDS011;1985;48.592;8.850;2022-08-24T02:00:22;9.20;;;2.20;;
3941;SDS011;1985;48.592;8.850;2022-08-24T02:02:48;10.10;;;2.38;;
3941;SDS011;1985;48.592;8.850;2022-08-24T02:05:14;10.10;;;2.25;;
3941;SDS011;1985;48.592;8.850;2022-08-24T02:07:41;9.80;;;2.20;;
3941;SDS011;1985;48.592;8.850;2022-08-24T02:10:07;10.23;;;1.80;;
3941;SDS011;1985;48.592;8.850;2022-08-24T02:12:36;8.98;;;2.00;;
3941;SDS011;1985;48.592;8.850;2022-08-24T02:15:05;10.67;;;2.03;;
3941;SDS011;1985;48.592;8.850;2022-08-24T02:17:32;10.38;;;2.50;;
3941;SDS011;1985;48.592;8.850;2022-08-24T02:19:59;9.18;;;1.98;;
3941;SDS011;1985;48.592;8.850;2022-08-24T02:22:25;10.20;;;2.30;;
3941;SDS011;1985;48.592;8.850;2022-08-24T02:24:51;9.53;;;2.13;;
3941;SDS011;1985;48.592;8.850;2022-08-24T02:27:16;9.70;;;2.30;;
3941;SDS011;1985;48.592;8.850;2022-08-24T02:29:43;10.27;;;2.22;;
3941;SDS011;1985;48.592;8.850;2022-08-24T02:32:10;9.20;;;2.08;;
3941;SDS011;1985;48.592;8.850;2022-08-24T02:34:36;9.73;;;2.20;;
3941;SDS011;1985;48.592;8.850;2022-08-24T02:37:04;10.10;;;2.70;;
3941;SDS011;1985;48.592;8.850;2022-08-24T02:39:30;9.57;;;2.17;;
3941;SDS011;1985;48.592;8.850;2022-08-24T02:41:56;11.10;;;2.63;;
3941;SDS011;1985;48.592;8.850;2022-08-24T02:44:21;9.90;;;2.40;;
3941;SDS011;1985;48.592;8.850;2022-08-24T02:46:47;10.60;;;2.20;;
3941;SDS011;1985;48.592;8.850;2022-08-24T02:49:13;10.02;;;2.30;;
3941;SDS011;1985;48.592;8.850;2022-08-24T02:51:41;10.20;;;2.50;;
3941;SDS011;1985;48.592;8.850;2022-08-24T02:54:08;9.77;;;2.10;;
3941;SDS011;1985;48.592;8.850;2022-08-24T02:56:34;11.00;;;2.22;;
3941;SDS011;1985;48.592;8.850;2022-08-24T02:59:00;9.00;;;1.90;;
3941;SDS011;1985;48.592;8.850;2022-08-24T03:01:27;9.85;;;2.40;;
3941;SDS011;1985;48.592;8.850;2022-08-24T03:03:53;9.68;;;2.20;;
3941;SDS011;1985;48.592;8.850;2022-08-24T03:06:19;9.73;;;2.30;;
3941;SDS011;1985;48.592;8.850;2022-08-24T03:08:45;11.63;;;2.40;;
3941;SDS011;1985;48.592;8.850;2022-08-24T03:11:11;10.50;;;2.50;;
3941;SDS011;1985;48.592;8.850;2022-08-24T03:13:37;10.05;;;2.45;;
3941;SDS011;1985;48.592;8.850;2022-08-24T03:16:04;9.40;;;2.33;;
3941;SDS011;1985;48.592;8.850;2022-08-24T03:18:30;10.50;;;2.60;;
3941;SDS011;1985;48.592;8.850;2022-08-24T03:20:56;10.50;;;2.30;;
3941;SDS011;1985;48.592;8.850;2022-08-24T03:23:23;12.90;;;3.00;;
3941;SDS011;1985;48.592;8.850;2022-08-24T03:25:50;10.05;;;2.22;;
3941;SDS011;1985;48.592;8.850;2022-08-24T03:28:16;10.07;;;2.60;;
3941;SDS011;1985;48.592;8.850;2022-08-24T03:30:43;9.20;;;2.40;;
3941;SDS011;1985;48.592;8.850;2022-08-24T03:33:09;10.30;;;2.20;;
3941;SDS011;1985;48.592;8.850;2022-08-24T03:35:35;9.70;;;2.30;;
3941;SDS011;1985;48.592;8.850;2022-08-24T03:38:01;9.63;;;2.60;;
3941;SDS011;1985;48.592;8.850;2022-08-24T03:40:28;9.90;;;2.50;;
3941;SDS011;1985;48.592;8.850;2022-08-24T03:42:57;10.63;;;2.58;;
3941;SDS011;1985;48.592;8.850;2022-08-24T03:45:23;11.50;;;2.40;;
3941;SDS011;1985;48.592;8.850;2022-08-24T03:47:49;11.95;;;2.75;;
3941;SDS011;1985;48.592;8.850;2022-08-24T03:50:15;9.82;;;2.30;;
3941;SDS011;1985;48.592;8.850;2022-08-24T03:52:41;10.70;;;2.38;;
3941;SDS011;1985;48.592;8.850;2022-08-24T03:55:07;10.90;;;2.47;;
3941;SDS011;1985;48.592;8.850;2022-08-24T03:57:33;9.77;;;2.13;;
3941;SDS011;1985;48.592;8.850;2022-08-24T04:00:00;10.50;;;2.50;;
3941;SDS011;1985;48.592;8.850;2022-08-24T04:02:26;11.00;;;2.55;;
3941;SDS011;1985;48.592;8.850;2022-08-24T04:04:52;11.25;;;2.67;;
3941;SDS011;1985;48.592;8.850;2022-08-24T04:07:18;9.82;;;2.17;;
3941;SDS011;1985;48.592;8.850;2022-08-24T04:09:43;11.20;;;2.40;;
3941;SDS011;1985;48.592;8.850;2022-08-24T04:12:09;10.48;;;2.60;;
3941;SDS011;1985;48.592;8.850;2022-08-24T04:14:35;11.05;;;2.55;;
3941;SDS011;1985;48.592;8.850;2022-08-24T04:17:01;13.43;;;1.98;;
3941;SDS011;1985;48.592;8.850;2022-08-24T04:19:28;10.00;;;2.50;;
3941;SDS011;1985;48.592;8.850;2022-08-24T04:21:54;12.80;;;2.70;;
3941;SDS011;1985;48.592;8.850;2022-08-24T04:24:21;11.57;;;2.70;;
3941;SDS011;1985;48.592;8.850;2022-08-24T04:26:47;11.00;;;2.50;;
3941;SDS011;1985;48.592;8.850;2022-08-24T04:29:13;10.02;;;2.35;;
3941;SDS011;1985;48.592;8.850;2022-08-24T04:31:40;9.88;;;2.40;;
3941;SDS011;1985;48.592;8.850;2022-08-24T04:34:07;10.90;;;2.70;;
3941;SDS011;1985;48.592;8.850;2022-08-24T04:36:34;9.80;;;2.10;;
3941;SDS011;1985;48.592;8.850;2022-08-24T04:39:00;17.50;;;3.05;;
3941;SDS011;1985;48.592;8.850;2022-08-24T04:41:26;10.00;;;1.97;;
3941;SDS011;1985;48.592;8.850;2022-08-24T04:43:52;11.10;;;2.50;;
3941;SDS011;1985;48.592;8.850;2022-08-24T04:46:18;10.65;;;2.55;;
3941;SDS011;1985;48.592;8.850;2022-08-24T04:48:45;11.00;;;2.90;;
3941;SDS011;1985;48.592;8.850;2022-08-24T04:51:12;9.80;;;2.53;;
3941;SDS011;1985;48.592;8.850;2022-08-24T04:53:39;11.65;;;2.65;;
3941;SDS011;1985;48.592;8.850;2022-08-24T04:56:19;10.07;;;2.60;;
3941;SDS011;1985;48.592;8.850;2022-08-24T04:58:47;10.57;;;2.40;;
3941;SDS011;1985;48.592;8.850;2022-08-24T05:01:15;10.52;;;2.72;;
3941;SDS011;1985;48.592;8.850;2022-08-24T05:03:44;10.38;;;2.80;;
3941;SDS011;1985;48.592;8.850;2022-08-24T05:06:12;10.90;;;2.50;;
3941;SDS011;1985;48.592;8.850;2022-08-24T05:08:39;10.65;;;2.70;;
3941;SDS011;1985;48.592;8.850;2022-08-24T05:11:06;11.50;;;3.15;;
3941;SDS011;1985;48.592;8.850;2022-08-24T05:13:32;10.37;;;2.40;;
3941;SDS011;1985;48.592;8.850;2022-08-24T05:15:59;11.05;;;3.00;;
3941;SDS011;1985;48.592;8.850;2022-08-24T05:18:24;10.52;;;2.65;;
3941;SDS011;1985;48.592;8.850;2022-08-24T05:20:53;9.73;;;2.30;;
3941;SDS011;1985;48.592;8.850;2022-08-24T05:23:19;10.52;;;2.83;;
3941;SDS011;1985;48.592;8.850;2022-08-24T05:25:46;11.38;;;2.95;;
3941;SDS011;1985;48.592;8.850;2022-08-24T05:28:12;13.00;;;2.70;;
3941;SDS011;1985;48.592;8.850;2022-08-24T05:30:38;10.70;;;2.93;;
3941;SDS011;1985;48.592;8.850;2022-08-24T05:33:03;14.10;;;2.80;;
3941;SDS011;1985;48.592;8.850;2022-08-24T05:35:29;12.07;;;2.97;;
3941;SDS011;1985;48.592;8.850;2022-08-24T05:37:55;16.20;;;3.15;;
3941;SDS011;1985;48.592;8.850;2022-08-24T05:40:21;10.27;;;2.73;;
3941;SDS011;1985;48.592;8.850;2022-08-24T05:42:47;12.18;;;3.13;;
3941;SDS011;1985;48.592;8.850;2022-08-24T05:45:13;10.43;;;2.60;;
3941;SDS011;1985;48.592;8.850;2022-08-24T05:47:38;20.52;;;3.05;;
3941;SDS011;1985;48.592;8.850;2022-08-24T05:50:04;16.27;;;3.60;;
3941;SDS011;1985;48.592;8.850;2022-08-24T05:52:31;11.52;;;2.70;;
3941;SDS011;1985;48.592;8.850;2022-08-24T05:54:58;11.43;;;2.88;;
3941;SDS011;1985;48.592;8.850;2022-08-24T05:57:25;11.25;;;3.08;;
3941;SDS011;1985;48.592;8.850;2022-08-24T05:59:55;10.80;;;3.08;;
3941;SDS011;1985;48.592;8.850;2022-08-24T06:02:20;12.33;;;3.20;;
3941;SDS011;1985;48.592;8.850;2022-08-24T06:04:47;11.82;;;3.17;;
3941;SDS011;1985;48.592;8.850;2022-08-24T06:07:13;10.33;;;2.40;;
3941;SDS011;1985;48.592;8.850;2022-08-24T06:09:39;10.07;;;2.65;;
3941;SDS011;1985;48.592;8.850;2022-08-24T06:12:06;10.00;;;2.80;;
3941;SDS011;1985;48.592;8.850;2022-08-24T06:14:33;11.70;;;2.95;;
3941;SDS011;1985;48.592;8.850;2022-08-24T06:17:01;9.65;;;2.90;;
3941;SDS011;1985;48.592;8.850;2022-08-24T06:19:31;10.10;;;3.00;;
3941;SDS011;1985;48.592;8.850;2022-08-24T06:21:57;11.88;;;2.80;;
3941;SDS011;1985;48.592;8.850;2022-08-24T06:24:24;13.25;;;3.58;;
3941;SDS011;1985;48.592;8.850;2022-08-24T06:27:08;10.13;;;2.90;;
3941;SDS011;1985;48.592;8.850;2022-08-24T06:29:51;10.32;;;2.60;;
3941;SDS011;1985;48.592;8.850;2022-08-24T06:32:18;10.80;;;2.90;;
3941;SDS011;1985;48.592;8.850;2022-08-24T06:34:44;10.37;;;2.83;;
3941;SDS011;1985;48.592;8.850;2022-08-24T06:37:10;10.80;;;3.10;;
3941;SDS011;1985;48.592;8.850;2022-08-24T06:39:36;11.07;;;3.50;;
3941;SDS011;1985;48.592;8.850;2022-08-24T06:42:02;14.20;;;3.30;;
3941;SDS011;1985;48.592;8.850;2022-08-24T06:44:29;10.43;;;2.95;;
3941;SDS011;1985;48.592;8.850;2022-08-24T06:46:55;11.00;;;3.20;;
3941;SDS011;1985;48.592;8.850;2022-08-24T06:49:21;12.00;;;3.60;;
3941;SDS011;1985;48.592;8.850;2022-08-24T06:51:47;11.30;;;3.58;;
3941;SDS011;1985;48.592;8.850;2022-08-24T06:54:13;13.60;;;3.15;;
3941;SDS011;1985;48.592;8.850;2022-08-24T06:56:39;9.80;;;3.00;;
3941;SDS011;1985;48.592;8.850;2022-08-24T06:59:04;12.07;;;2.92;;
3941;SDS011;1985;48.592;8.850;2022-08-24T07:01:30;11.93;;;3.25;;
3941;SDS011;1985;48.592;8.850;2022-08-24T07:03:57;11.38;;;3.03;;
3941;SDS011;1985;48.592;8.850;2022-08-24T07:06:23;16.80;;;3.10;;
3941;SDS011;1985;48.592;8.850;2022-08-24T07:08:49;11.20;;;3.25;;
3941;SDS011;1985;48.592;8.850;2022-08-24T07:11:16;12.20;;;3.50;;
3941;SDS011;1985;48.592;8.850;2022-08-24T07:13:45;10.63;;;3.33;;
3941;SDS011;1985;48.592;8.850;2022-08-24T07:16:13;11.30;;;2.70;;
3941;SDS011;1985;48.592;8.850;2022-08-24T07:18:40;12.88;;;2.80;;
3941;SDS011;1985;48.592;8.850;2022-08-24T07:21:06;11.20;;;3.50;;
3941;SDS011;1985;48.592;8.850;2022-08-24T07:23:32;11.05;;;2.90;;
3941;SDS011;1985;48.592;8.850;2022-08-24T07:26:03;12.20;;;3.00;;
3941;SDS011;1985;48.592;8.850;2022-08-24T07:28:33;13.02;;;3.17;;
3941;SDS011;1985;48.592;8.850;2022-08-24T07:31:00;10.73;;;3.13;;
3941;SDS011;1985;48.592;8.850;2022-08-24T07:33:26;12.53;;;3.00;;
3941;SDS011;1985;48.592;8.850;2022-08-24T07:35:52;10.07;;;3.30;;
3941;SDS011;1985;48.592;8.850;2022-08-24T07:38:17;10.80;;;3.10;;
3941;SDS011;1985;48.592;8.850;2022-08-24T07:40:45;10.40;;;3.40;;
3941;SDS011;1985;48.592;8.850;2022-08-24T07:43:11;13.73;;;3.13;;
3941;SDS011;1985;48.592;8.850;2022-08-24T07:45:38;11.50;;;2.70;;
3941;SDS011;1985;48.592;8.850;2022-08-24T07:48:06;11.77;;;3.55;;
3941;SDS011;1985;48.592;8.850;2022-08-24T07:50:32;10.25;;;2.47;;
3941;SDS011;1985;48.592;8.850;2022-08-24T07:52:58;10.97;;;2.93;;
3941;SDS011;1985;48.592;8.850;2022-08-24T07:55:23;11.40;;;2.90;;
3941;SDS011;1985;48.592;8.850;2022-08-24T07:57:49;11.60;;;2.50;;
3941;SDS011;1985;48.592;8.850;2022-08-24T08:00:15;11.13;;;3.30;;
3941;SDS011;1985;48.592;8.850;2022-08-24T08:02:43;9.75;;;2.00;;
3941;SDS011;1985;48.592;8.850;2022-08-24T08:05:12;11.25;;;3.00;;
3941;SDS011;1985;48.592;8.850;2022-08-24T08:07:39;10.57;;;3.03;;
3941;SDS011;1985;48.592;8.850;2022-08-24T08:10:05;11.83;;;2.53;;
3941;SDS011;1985;48.592;8.850;2022-08-24T08:12:32;9.27;;;2.30;;
3941;SDS011;1985;48.592;8.850;2022-08-24T08:14:59;13.15;;;2.70;;
3941;SDS011;1985;48.592;8.850;2022-08-24T08:17:24;9.90;;;2.30;;
3941;SDS011;1985;48.592;8.850;2022-08-24T08:19:50;9.10;;;2.27;;
3941;SDS011;1985;48.592;8.850;2022-08-24T08:22:16;8.93;;;2.10;;
3941;SDS011;1985;48.592;8.850;2022-08-24T08:25:00;10.15;;;2.28;;
3941;SDS011;1985;48.592;8.850;2022-08-24T08:27:26;9.20;;;2.17;;
3941;SDS011;1985;48.592;8.850;2022-08-24T08:29:52;9.50;;;2.20;;
3941;SDS011;1985;48.592;8.850;2022-08-24T08:32:18;14.87;;;2.87;;
3941;SDS011;1985;48.592;8.850;2022-08-24T08:34:44;11.70;;;2.58;;
3941;SDS011;1985;48.592;8.850;2022-08-24T08:37:11;11.48;;;2.60;;
3941;SDS011;1985;48.592;8.850;2022-08-24T08:39:38;10.40;;;2.00;;
3941;SDS011;1985;48.592;8.850;2022-08-24T08:59:04;10.00;;;2.30;;
3941;SDS011;1985;48.592;8.850;2022-08-24T09:04:49;8.90;;;1.98;;
3941;SDS011;1985;48.592;8.850;2022-08-24T09:10:23;8.25;;;1.50;;
3941;SDS011;1985;48.592;8.850;2022-08-24T09:13:22;9.57;;;1.85;;
3941;SDS011;1985;48.592;8.850;2022-08-24T09:18:30;8.10;;;1.50;;
3941;SDS011;1985;48.592;8.850;2022-08-24T09:31:41;8.95;;;1.50;;
3941;SDS011;1985;48.592;8.850;2022-08-24T09:34:38;8.75;;;1.80;;
3941;SDS011;1985;48.592;8.850;2022-08-24T09:46:09;8.23;;;1.50;;
3941;SDS011;1985;48.592;8.850;2022-08-24T09:53:56;8.03;;;1.40;;
3941;SDS011;1985;48.592;8.850;2022-08-24T10:07:45;8.95;;;1.67;;
3941;SDS011;1985;48.592;8.850;2022-08-24T10:10:19;10.70;;;1.60;;
3941;SDS011;1985;48.592;8.850;2022-08-24T10:15:28;9.57;;;1.48;;
3941;SDS011;1985;48.592;8.850;2022-08-24T10:18:10;9.70;;;1.60;;
3941;SDS011;1985;48.592;8.850;2022-08-24T10:26:22;9.00;;;1.60;;
3941;SDS011;1985;48.592;8.850;2022-08-24T10:34:54;8.48;;;1.38;;
3941;SDS011;1985;48.592;8.850;2022-08-24T10:51:50;8.00;;;1.50;;
3941;SDS011;1985;48.592;8.850;2022-08-24T10:54:36;8.23;;;1.80;;
3941;SDS011;1985;48.592;8.850;2022-08-24T10:57:37;7.90;;;1.40;;
3941;SDS011;1985;48.592;8.850;2022-08-24T11:02:38;7.68;;;1.35;;
3941;SDS011;1985;48.592;8.850;2022-08-24T11:05:10;7.80;;;1.65;;
3941;SDS011;1985;48.592;8.850;2022-08-24T11:10:34;7.27;;;1.30;;
3941;SDS011;1985;48.592;8.850;2022-08-24T11:15:49;8.33;;;1.50;;
3941;SDS011;1985;48.592;8.850;2022-08-24T11:18:19;7.35;;;1.20;;
3941;SDS011;1985;48.592;8.850;2022-08-24T11:20:48;8.20;;;1.45;;
3941;SDS011;1985;48.592;8.850;2022-08-24T11:23:19;7.80;;;1.40;;
3941;SDS011;1985;48.592;8.850;2022-08-24T11:28:34;7.60;;;1.30;;
3941;SDS011;1985;48.592;8.850;2022-08-24T11:31:01;7.90;;;1.48;;
3941;SDS011;1985;48.592;8.850;2022-08-24T11:33:47;7.10;;;1.20;;
3941;SDS011;1985;48.592;8.850;2022-08-24T11:36:15;9.90;;;1.40;;
3941;SDS011;1985;48.592;8.850;2022-08-24T11:38:43;8.13;;;1.40;;
3941;SDS011;1985;48.592;8.850;2022-08-24T11:46:51;8.40;;;1.33;;
3941;SDS011;1985;48.592;8.850;2022-08-24T11:49:46;9.52;;;1.40;;
3941;SDS011;1985;48.592;8.850;2022-08-24T11:55:32;7.40;;;1.50;;
3941;SDS011;1985;48.592;8.850;2022-08-24T12:18:02;7.10;;;1.10;;
3941;SDS011;1985;48.592;8.850;2022-08-24T12:20:42;7.23;;;1.17;;
3941;SDS011;1985;48.592;8.850;2022-08-24T12:25:56;7.88;;;1.23;;
3941;SDS011;1985;48.592;8.850;2022-08-24T12:28:43;7.60;;;1.02;;
3941;SDS011;1985;48.592;8.850;2022-08-24T12:33:58;7.30;;;1.10;;
3941;SDS011;1985;48.592;8.850;2022-08-24T12:36:50;7.10;;;1.20;;
3941;SDS011;1985;48.592;8.850;2022-08-24T12:39:38;7.43;;;1.40;;
3941;SDS011;1985;48.592;8.850;2022-08-24T12:42:24;7.20;;;1.30;;
3941;SDS011;1985;48.592;8.850;2022-08-24T12:45:04;8.10;;;1.30;;
3941;SDS011;1985;48.592;8.850;2022-08-24T13:01:29;7.40;;;1.40;;
3941;SDS011;1985;48.592;8.850;2022-08-24T13:06:36;7.20;;;1.20;;
3941;SDS011;1985;48.592;8.850;2022-08-24T13:09:32;6.90;;;1.20;;
3941;SDS011;1985;48.592;8.850;2022-08-24T13:33:18;6.93;;;1.10;;
3941;SDS011;1985;48.592;8.850;2022-08-24T13:36:07;8.10;;;1.48;;
3941;SDS011;1985;48.592;8.850;2022-08-24T13:38:57;7.47;;;1.17;;
3941;SDS011;1985;48.592;8.850;2022-08-24T14:17:35;7.60;;;1.30;;
3941;SDS011;1985;48.592;8.850;2022-08-24T14:21:00;7.30;;;1.20;;
3941;SDS011;1985;48.592;8.850;2022-08-24T14:23:38;7.38;;;1.10;;
3941;SDS011;1985;48.592;8.850;2022-08-24T14:34:27;7.40;;;1.10;;
3941;SDS011;1985;48.592;8.850;2022-08-24T14:42:16;6.85;;;0.90;;
3941;SDS011;1985;48.592;8.850;2022-08-24T14:45:07;7.10;;;1.10;;
3941;SDS011;1985;48.592;8.850;2022-08-24T14:50:23;7.22;;;1.15;;
3941;SDS011;1985;48.592;8.850;2022-08-24T15:01:47;6.97;;;1.10;;
3941;SDS011;1985;48.592;8.850;2022-08-24T15:04:26;7.40;;;1.10;;
3941;SDS011;1985;48.592;8.850;2022-08-24T15:06:58;8.00;;;1.40;;
3941;SDS011;1985;48.592;8.850;2022-08-24T15:09:46;7.20;;;1.10;;
3941;SDS011;1985;48.592;8.850;2022-08-24T15:15:00;7.30;;;1.20;;
3941;SDS011;1985;48.592;8.850;2022-08-24T15:23:21;9.00;;;1.20;;
3941;SDS011;1985;48.592;8.850;2022-08-24T15:26:01;7.93;;;1.30;;
3941;SDS011;1985;48.592;8.850;2022-08-24T15:28:33;8.10;;;1.20;;
3941;SDS011;1985;48.592;8.850;2022-08-24T15:31:04;7.10;;;1.10;;
3941;SDS011;1985;48.592;8.850;2022-08-24T15:33:37;7.25;;;1.05;;
3941;SDS011;1985;48.592;8.850;2022-08-24T15:36:33;8.40;;;1.20;;
3941;SDS011;1985;48.592;8.850;2022-08-24T15:38:59;8.20;;;1.50;;
3941;SDS011;1985;48.592;8.850;2022-08-24T15:41:29;7.20;;;1.00;;
3941;SDS011;1985;48.592;8.850;2022-08-24T15:46:30;7.50;;;1.38;;
3941;SDS011;1985;48.592;8.850;2022-08-24T15:49:36;7.90;;;1.00;;
3941;SDS011;1985;48.592;8.850;2022-08-24T15:52:34;8.13;;;1.60;;
3941;SDS011;1985;48.592;8.850;2022-08-24T15:55:05;7.60;;;1.27;;
3941;SDS011;1985;48.592;8.850;2022-08-24T15:57:36;8.20;;;1.48;;
3941;SDS011;1985;48.592;8.850;2022-08-24T16:00:15;7.38;;;1.10;;
3941;SDS011;1985;48.592;8.850;2022-08-24T16:06:53;7.95;;;1.60;;
3941;SDS011;1985;48.592;8.850;2022-08-24T16:09:10;8.07;;;1.30;;
3941;SDS011;1985;48.592;8.850;2022-08-24T16:11:41;10.40;;;1.60;;
3941;SDS011;1985;48.592;8.850;2022-08-24T16:14:13;7.88;;;1.67;;
3941;SDS011;1985;48.592;8.850;2022-08-24T16:16:49;7.70;;;1.30;;
3941;SDS011;1985;48.592;8.850;2022-08-24T16:19:25;7.80;;;1.30;;
3941;SDS011;1985;48.592;8.850;2022-08-24T16:26:57;8.65;;;1.85;;
3941;SDS011;1985;48.592;8.850;2022-08-24T16:34:48;9.10;;;1.40;;
3941;SDS011;1985;48.592;8.850;2022-08-24T16:37:17;8.20;;;1.50;;
3941;SDS011;1985;48.592;8.850;2022-08-24T16:39:44;8.70;;;1.43;;
3941;SDS011;1985;48.592;8.850;2022-08-24T16:42:12;8.00;;;1.43;;
3941;SDS011;1985;48.592;8.850;2022-08-24T16:44:53;8.00;;;1.60;;
3941;SDS011;1985;48.592;8.850;2022-08-24T16:47:19;7.90;;;1.50;;
3941;SDS011;1985;48.592;8.850;2022-08-24T16:49:46;8.35;;;1.70;;
3941;SDS011;1985;48.592;8.850;2022-08-24T16:52:13;7.93;;;1.50;;
3941;SDS011;1985;48.592;8.850;2022-08-24T16:54:39;11.18;;;1.33;;
3941;SDS011;1985;48.592;8.850;2022-08-24T16:57:12;8.37;;;1.50;;
3941;SDS011;1985;48.592;8.850;2022-08-24T16:59:41;9.10;;;1.50;;
3941;SDS011;1985;48.592;8.850;2022-08-24T17:02:08;8.30;;;1.48;;
3941;SDS011;1985;48.592;8.850;2022-08-24T17:04:35;7.90;;;1.50;;
3941;SDS011;1985;48.592;8.850;2022-08-24T17:07:02;8.50;;;1.60;;
3941;SDS011;1985;48.592;8.850;2022-08-24T17:09:30;9.23;;;1.70;;
3941;SDS011;1985;48.592;8.850;2022-08-24T17:11:56;8.60;;;1.60;;
3941;SDS011;1985;48.592;8.850;2022-08-24T17:14:21;8.13;;;1.60;;
3941;SDS011;1985;48.592;8.850;2022-08-24T17:16:48;7.75;;;1.58;;
3941;SDS011;1985;48.592;8.850;2022-08-24T17:19:14;7.90;;;1.50;;
3941;SDS011;1985;48.592;8.850;2022-08-24T17:21:42;8.23;;;1.55;;
3941;SDS011;1985;48.592;8.850;2022-08-24T17:24:08;7.70;;;1.42;;
3941;SDS011;1985;48.592;8.850;2022-08-24T17:26:34;7.82;;;1.50;;
3941;SDS011;1985;48.592;8.850;2022-08-24T17:29:04;8.13;;;1.60;;
3941;SDS011;1985;48.592;8.850;2022-08-24T17:31:33;10.60;;;1.60;;
3941;SDS011;1985;48.592;8.850;2022-08-24T17:33:59;8.30;;;1.80;;
3941;SDS011;1985;48.592;8.850;2022-08-24T17:36:25;7.80;;;1.30;;
3941;SDS011;1985;48.592;8.850;2022-08-24T17:38:52;7.70;;;1.50;;
3941;SDS011;1985;48.592;8.850;2022-08-24T17:41:20;8.53;;;1.73;;
3941;SDS011;1985;48.592;8.850;2022-08-24T17:43:47;7.85;;;1.40;;
3941;SDS011;1985;48.592;8.850;2022-08-24T17:46:13;8.50;;;1.80;;
3941;SDS011;1985;48.592;8.850;2022-08-24T17:48:40;8.88;;;1.50;;
3941;SDS011;1985;48.592;8.850;2022-08-24T17:51:08;8.00;;;1.60;;
3941;SDS011;1985;48.592;8.850;2022-08-24T17:53:34;7.95;;;1.40;;
3941;SDS011;1985;48.592;8.850;2022-08-24T17:56:03;9.00;;;1.60;;
3941;SDS011;1985;48.592;8.850;2022-08-24T17:58:30;8.20;;;1.42;;
3941;SDS011;1985;48.592;8.850;2022-08-24T18:00:56;10.30;;;1.92;;
3941;SDS011;1985;48.592;8.850;2022-08-24T18:03:22;9.30;;;1.80;;
3941;SDS011;1985;48.592;8.850;2022-08-24T18:05:48;7.87;;;1.50;;
3941;SDS011;1985;48.592;8.850;2022-08-24T18:08:14;7.47;;;1.10;;
3941;SDS011;1985;48.592;8.850;2022-08-24T18:10:40;7.93;;;1.37;;
3941;SDS011;1985;48.592;8.850;2022-08-24T18:13:05;8.90;;;1.80;;
3941;SDS011;1985;48.592;8.850;2022-08-24T18:15:33;7.90;;;1.60;;
3941;SDS011;1985;48.592;8.850;2022-08-24T18:18:00;8.27;;;1.67;;
3941;SDS011;1985;48.592;8.850;2022-08-24T18:20:28;9.80;;;1.60;;
3941;SDS011;1985;48.592;8.850;2022-08-24T18:22:59;8.20;;;1.60;;
3941;SDS011;1985;48.592;8.850;2022-08-24T18:25:25;7.93;;;1.20;;
3941;SDS011;1985;48.592;8.850;2022-08-24T18:27:52;8.00;;;1.38;;
3941;SDS011;1985;48.592;8.850;2022-08-24T18:30:20;8.27;;;1.50;;
3941;SDS011;1985;48.592;8.850;2022-08-24T18:32:47;8.30;;;1.60;;
3941;SDS011;1985;48.592;8.850;2022-08-24T18:35:13;8.52;;;2.00;;
3941;SDS011;1985;48.592;8.850;2022-08-24T18:37:38;8.40;;;1.70;;
3941;SDS011;1985;48.592;8.850;2022-08-24T18:40:04;7.70;;;1.20;;
3941;SDS011;1985;48.592;8.850;2022-08-24T18:42:30;8.60;;;1.60;;
3941;SDS011;1985;48.592;8.850;2022-08-24T18:44:57;8.53;;;1.60;;
3941;SDS011;1985;48.592;8.850;2022-08-24T18:47:26;8.25;;;1.50;;
3941;SDS011;1985;48.592;8.850;2022-08-24T18:49:52;7.90;;;1.30;;
3941;SDS011;1985;48.592;8.850;2022-08-24T18:52:17;8.10;;;1.30;;
3941;SDS011;1985;48.592;8.850;2022-08-24T18:54:44;8.00;;;1.52;;
3941;SDS011;1985;48.592;8.850;2022-08-24T18:57:12;8.35;;;1.75;;
3941;SDS011;1985;48.592;8.850;2022-08-24T18:59:38;8.07;;;1.40;;
3941;SDS011;1985;48.592;8.850;2022-08-24T19:02:11;8.80;;;1.60;;
3941;SDS011;1985;48.592;8.850;2022-08-24T19:07:33;10.80;;;1.70;;
3941;SDS011;1985;48.592;8.850;2022-08-24T19:10:03;9.70;;;1.60;;
3941;SDS011;1985;48.592;8.850;2022-08-24T19:12:30;8.60;;;1.40;;
3941;SDS011;1985;48.592;8.850;2022-08-24T19:15:00;8.25;;;1.60;;
3941;SDS011;1985;48.592;8.850;2022-08-24T19:17:27;9.13;;;1.77;;
3941;SDS011;1985;48.592;8.850;2022-08-24T19:19:53;8.80;;;1.50;;
3941;SDS011;1985;48.592;8.850;2022-08-24T19:22:19;9.38;;;1.80;;
3941;SDS011;1985;48.592;8.850;2022-08-24T19:24:45;9.80;;;1.80;;
3941;SDS011;1985;48.592;8.850;2022-08-24T19:27:11;9.70;;;1.70;;
3941;SDS011;1985;48.592;8.850;2022-08-24T19:29:37;8.35;;;1.70;;
3941;SDS011;1985;48.592;8.850;2022-08-24T19:32:03;10.10;;;1.80;;
3941;SDS011;1985;48.592;8.850;2022-08-24T19:34:29;9.18;;;1.60;;
3941;SDS011;1985;48.592;8.850;2022-08-24T19:36:55;9.70;;;1.58;;
3941;SDS011;1985;48.592;8.850;2022-08-24T19:39:21;8.25;;;1.48;;
3941;SDS011;1985;48.592;8.850;2022-08-24T19:41:47;9.23;;;2.10;;
3941;SDS011;1985;48.592;8.850;2022-08-24T19:44:15;10.50;;;2.10;;
3941;SDS011;1985;48.592;8.850;2022-08-24T19:47:01;13.80;;;2.10;;